Wausa, Nebraska
Current Conditions -  °F | °C
As of 8:15 PM on Saturday 22 Nov 2014 (Local Time) from KYKN Reporting Station
Clear Clear  
Wind Chill: 42°   Ceiling: Unl
Heat Index: 48°   Visibility: 10mi
Dew Point: 37°   Wind: 15mph
Humidity: 66%   Direction: 210°SSW
Pressure: 29.47"   Gusts: 18mph
Location:  42.5°N, 97.54°W
Report Text: KYKN 230215Z AUTO 21013G16KT 10SM CLR 09/03 A2947 RMK AO1
Loading
Personal Weather Stations






























Interactive Weather Map New forecast layout! Learn more

10-Day Weather Forecast

Advertisements
Track Severe Weather on mobile